createdAt,value
2022-09-15T00:01:42.603Z,9.30
2022-09-15T00:04:10.708Z,8.60
2022-09-15T00:06:38.568Z,8.50
2022-09-15T00:09:06.462Z,8.10
2022-09-15T00:11:37.310Z,8.90
2022-09-15T00:14:07.399Z,9.70
2022-09-15T00:16:35.719Z,9.40
2022-09-15T00:19:04.200Z,9.00
2022-09-15T00:21:35.033Z,8.60
2022-09-15T00:24:03.170Z,8.80
2022-09-15T00:26:38.492Z,9.00
2022-09-15T00:29:06.715Z,8.70
2022-09-15T00:31:34.554Z,8.90
2022-09-15T00:34:03.049Z,8.80
2022-09-15T00:36:31.342Z,8.90
2022-09-15T00:38:59.403Z,9.10
2022-09-15T00:41:27.503Z,9.40
2022-09-15T00:43:58.898Z,8.80
2022-09-15T00:46:31.324Z,8.40
2022-09-15T00:49:09.508Z,8.80
2022-09-15T00:51:47.030Z,10.40
2022-09-15T00:54:19.704Z,9.00
2022-09-15T00:56:55.509Z,9.70
2022-09-15T00:59:28.574Z,9.80
2022-09-15T01:02:11.940Z,9.20
2022-09-15T01:04:40.338Z,9.20
2022-09-15T01:07:22.370Z,8.70
2022-09-15T01:09:58.900Z,8.40
2022-09-15T01:12:28.481Z,8.00
2022-09-15T01:14:56.319Z,8.20
2022-09-15T01:17:37.807Z,8.80
2022-09-15T01:21:02.218Z,8.70
2022-09-15T01:23:58.914Z,8.40
2022-09-15T01:26:53.784Z,8.00
2022-09-15T01:29:59.489Z,7.90
2022-09-15T01:33:04.885Z,8.10
2022-09-15T01:35:45.629Z,7.30
2022-09-15T01:38:25.736Z,7.80
2022-09-15T01:41:12.608Z,8.90
2022-09-15T01:43:51.788Z,8.70
2022-09-15T01:46:23.573Z,8.70
2022-09-15T01:48:55.237Z,7.80
2022-09-15T01:51:25.856Z,8.90
2022-09-15T01:53:56.159Z,7.90
2022-09-15T01:56:23.993Z,8.70
2022-09-15T01:58:52.115Z,9.40
2022-09-15T02:01:33.866Z,8.30
2022-09-15T02:04:11.014Z,8.20
2022-09-15T02:06:56.433Z,7.60
2022-09-15T02:09:51.313Z,8.20
2022-09-15T02:12:42.833Z,7.60
2022-09-15T02:15:15.204Z,8.70
2022-09-15T02:17:48.299Z,9.10
2022-09-15T02:20:34.618Z,9.60
2022-09-15T02:23:09.942Z,8.80
2022-09-15T02:25:46.071Z,8.90
2022-09-15T02:28:17.272Z,9.00
2022-09-15T02:30:47.813Z,8.10
2022-09-15T02:33:24.211Z,7.90
2022-09-15T02:35:52.989Z,8.10
2022-09-15T02:38:21.697Z,9.10
2022-09-15T02:40:49.796Z,8.50
2022-09-15T02:43:18.808Z,8.00
2022-09-15T02:45:46.857Z,7.70
2022-09-15T02:48:14.843Z,8.60
2022-09-15T02:50:42.652Z,7.90
2022-09-15T02:53:10.460Z,7.50
2022-09-15T02:55:38.366Z,8.40
2022-09-15T02:58:06.389Z,9.90
2022-09-15T03:00:40.365Z,11.30
2022-09-15T03:03:08.829Z,8.80
2022-09-15T03:05:36.826Z,7.80
2022-09-15T03:08:04.814Z,8.40
2022-09-15T03:10:33.566Z,9.40
2022-09-15T03:13:01.339Z,8.40
2022-09-15T03:15:30.301Z,8.30
2022-09-15T03:17:58.026Z,9.50
2022-09-15T03:20:30.823Z,9.10
2022-09-15T03:22:58.760Z,9.10
2022-09-15T03:25:27.230Z,9.80
2022-09-15T03:27:55.123Z,9.10
2022-09-15T03:30:24.223Z,9.10
2022-09-15T03:32:52.031Z,9.90
2022-09-15T03:35:19.952Z,8.90
2022-09-15T03:37:47.721Z,9.50
2022-09-15T03:40:15.686Z,9.00
2022-09-15T03:42:43.476Z,8.30
2022-09-15T03:45:11.428Z,8.90
2022-09-15T03:47:39.260Z,9.90
2022-09-15T03:50:11.234Z,10.40
2022-09-15T03:52:38.988Z,9.10
2022-09-15T03:55:07.137Z,8.50
2022-09-15T03:57:35.412Z,9.70
2022-09-15T04:00:06.606Z,9.30
2022-09-15T04:02:34.423Z,8.90
2022-09-15T04:05:03.040Z,8.50
2022-09-15T04:07:30.898Z,8.90
2022-09-15T04:09:59.131Z,8.60
2022-09-15T04:12:27.175Z,9.50
2022-09-15T04:14:54.969Z,8.30
2022-09-15T04:17:22.932Z,8.60
2022-09-15T04:19:50.868Z,9.00
2022-09-15T04:22:18.884Z,9.40
2022-09-15T04:24:48.500Z,9.80
2022-09-15T04:27:17.505Z,9.00
2022-09-15T04:29:45.384Z,9.50
2022-09-15T04:32:14.186Z,8.90
2022-09-15T04:34:42.138Z,8.10
2022-09-15T04:37:22.578Z,8.10
2022-09-15T04:39:52.506Z,9.00
2022-09-15T04:42:21.811Z,7.80
2022-09-15T04:44:49.620Z,7.40
2022-09-15T04:47:18.084Z,7.80
2022-09-15T04:49:46.198Z,7.60
2022-09-15T04:52:14.049Z,7.90
2022-09-15T04:54:41.954Z,7.80
2022-09-15T04:57:09.951Z,7.80
2022-09-15T04:59:37.732Z,7.30
2022-09-15T05:02:05.695Z,7.60
2022-09-15T05:04:33.653Z,7.20
2022-09-15T05:07:01.576Z,8.10
2022-09-15T05:09:31.066Z,7.40
2022-09-15T05:11:58.935Z,7.40
2022-09-15T05:14:26.677Z,9.20
2022-09-15T05:16:54.676Z,8.50
2022-09-15T05:19:22.517Z,7.70
2022-09-15T05:21:50.337Z,7.50
2022-09-15T05:24:18.126Z,6.90
2022-09-15T05:26:45.847Z,7.40
2022-09-15T05:29:14.277Z,8.80
2022-09-15T05:31:42.202Z,8.50
2022-09-15T05:34:11.367Z,8.40
2022-09-15T05:36:39.289Z,8.30
2022-09-15T05:39:07.158Z,8.70
2022-09-15T05:41:35.105Z,8.70
2022-09-15T05:44:03.027Z,7.70
2022-09-15T05:46:31.247Z,8.60
2022-09-15T05:48:59.445Z,8.70
2022-09-15T05:51:27.852Z,10.10
2022-09-15T05:53:56.215Z,11.60
2022-09-15T05:56:24.472Z,10.40
2022-09-15T05:58:52.715Z,11.70
2022-09-15T06:01:23.842Z,9.80
2022-09-15T06:03:53.032Z,9.60
2022-09-15T06:06:28.176Z,9.10
2022-09-15T06:08:59.488Z,9.80
2022-09-15T06:11:33.764Z,8.00
2022-09-15T06:16:35.485Z,7.90
2022-09-15T06:19:03.636Z,8.50
2022-09-15T06:21:33.196Z,7.60
2022-09-15T06:24:03.816Z,6.90
2022-09-15T06:26:31.596Z,8.00
2022-09-15T06:29:01.828Z,8.10
2022-09-15T06:31:32.251Z,7.60
2022-09-15T06:34:01.098Z,7.40
2022-09-15T06:36:30.446Z,8.20
2022-09-15T06:38:59.303Z,9.30
2022-09-15T06:41:38.181Z,8.60
2022-09-15T06:44:15.635Z,8.10
2022-09-15T06:46:43.457Z,9.00
2022-09-15T06:49:11.367Z,8.50
2022-09-15T06:51:39.278Z,7.60
2022-09-15T06:54:07.182Z,7.70
2022-09-15T06:56:38.108Z,7.40
2022-09-15T06:59:06.739Z,6.80
2022-09-15T07:01:39.130Z,7.60
2022-09-15T07:04:13.857Z,7.10
2022-09-15T07:06:41.589Z,6.60
2022-09-15T07:09:16.425Z,6.50
2022-09-15T07:11:44.942Z,7.50
2022-09-15T07:14:12.844Z,8.50
2022-09-15T07:16:40.758Z,6.80
2022-09-15T07:19:09.239Z,6.40
2022-09-15T07:21:37.470Z,7.10
2022-09-15T07:24:07.561Z,7.00
2022-09-15T07:26:35.575Z,6.40
2022-09-15T07:29:06.734Z,6.70
2022-09-15T07:31:36.871Z,8.80
2022-09-15T07:34:06.097Z,6.70
2022-09-15T07:36:34.241Z,6.30
2022-09-15T07:39:04.156Z,5.20
2022-09-15T07:41:33.174Z,5.40
2022-09-15T07:44:02.310Z,5.40
2022-09-15T07:46:32.403Z,4.40
2022-09-15T07:49:03.216Z,4.50
2022-09-15T07:51:31.336Z,3.60
2022-09-15T07:53:59.164Z,4.20
2022-09-15T07:56:27.029Z,4.10
2022-09-15T07:58:54.808Z,4.10
2022-09-15T08:01:22.800Z,4.70
2022-09-15T08:03:52.430Z,3.80
2022-09-15T08:06:31.693Z,4.20
2022-09-15T08:09:03.549Z,4.40
2022-09-15T08:11:31.640Z,4.20
2022-09-15T08:14:02.045Z,3.40
2022-09-15T08:16:30.049Z,3.80
2022-09-15T08:18:58.700Z,3.40
2022-09-15T08:21:27.808Z,3.90
2022-09-15T08:23:58.287Z,3.10
2022-09-15T08:26:28.597Z,3.20
2022-09-15T08:28:56.703Z,3.10
2022-09-15T08:31:24.878Z,2.90
2022-09-15T08:33:55.556Z,2.90
2022-09-15T08:36:27.717Z,2.90
2022-09-15T08:38:56.492Z,3.50
2022-09-15T08:41:29.328Z,3.30
2022-09-15T08:44:20.039Z,4.40
2022-09-15T08:46:58.517Z,2.40
2022-09-15T08:49:51.018Z,3.10
2022-09-15T08:52:43.309Z,3.60
2022-09-15T08:55:14.842Z,2.30
2022-09-15T08:57:42.729Z,1.90
2022-09-15T09:00:16.753Z,4.80
2022-09-15T09:02:58.536Z,2.70
2022-09-15T09:05:29.711Z,2.60
2022-09-15T09:08:03.454Z,2.30
2022-09-15T09:10:51.475Z,2.20
2022-09-15T09:13:35.677Z,2.10
2022-09-15T09:16:27.250Z,1.80
2022-09-15T09:19:09.797Z,2.60
2022-09-15T09:21:48.483Z,2.10
2022-09-15T09:24:31.415Z,1.70
2022-09-15T09:26:59.639Z,1.50
2022-09-15T09:29:35.800Z,1.40
2022-09-15T09:32:04.577Z,2.70
2022-09-15T09:34:41.797Z,1.40
2022-09-15T09:37:14.270Z,1.60
2022-09-15T09:39:42.714Z,1.50
2022-09-15T09:42:18.986Z,1.60
2022-09-15T09:44:54.134Z,1.50
2022-09-15T09:47:29.884Z,1.20
2022-09-15T09:50:02.207Z,1.40
2022-09-15T09:52:43.072Z,1.10
2022-09-15T09:55:27.050Z,1.30
2022-09-15T09:58:12.217Z,1.30
2022-09-15T10:00:40.991Z,1.60
2022-09-15T10:03:17.454Z,1.70
2022-09-15T10:06:00.312Z,1.30
2022-09-15T10:08:28.278Z,1.10
2022-09-15T10:11:04.064Z,2.20
2022-09-15T10:13:35.176Z,1.90
2022-09-15T10:16:06.720Z,1.80
2022-09-15T10:18:39.589Z,1.50
2022-09-15T10:21:10.059Z,1.80
2022-09-15T10:23:38.021Z,1.70
2022-09-15T10:26:34.514Z,1.30
2022-09-15T10:29:18.189Z,2.00
2022-09-15T10:31:46.759Z,1.80
2022-09-15T10:34:32.022Z,2.00
2022-09-15T10:37:15.562Z,1.40
2022-09-15T10:40:00.026Z,2.30
2022-09-15T10:42:58.291Z,3.10
2022-09-15T10:45:39.444Z,2.10
2022-09-15T10:48:33.466Z,1.80
2022-09-15T10:51:31.204Z,1.40
2022-09-15T10:54:41.468Z,1.30
2022-09-15T10:57:31.421Z,1.60
2022-09-15T11:01:11.676Z,1.70
2022-09-15T11:04:17.204Z,1.80
2022-09-15T11:07:12.078Z,1.60
2022-09-15T11:09:44.030Z,1.80
2022-09-15T11:12:25.857Z,1.60
2022-09-15T11:15:10.163Z,2.10
2022-09-15T11:18:03.105Z,1.40
2022-09-15T11:20:48.260Z,1.60
2022-09-15T11:23:38.918Z,2.10
2022-09-15T11:26:17.399Z,1.60
2022-09-15T11:29:18.090Z,1.10
2022-09-15T11:31:51.901Z,1.80
2022-09-15T11:34:36.272Z,1.80
2022-09-15T11:39:45.610Z,1.60
2022-09-15T11:42:45.054Z,1.40
2022-09-15T11:45:21.733Z,3.10
2022-09-15T11:48:12.733Z,1.60
2022-09-15T11:50:45.504Z,1.40
2022-09-15T11:53:47.068Z,1.50
2022-09-15T11:56:23.707Z,1.50
2022-09-15T11:59:04.831Z,1.60
2022-09-15T12:01:55.822Z,1.40
2022-09-15T12:04:30.849Z,1.90
2022-09-15T12:07:01.634Z,1.60
2022-09-15T12:09:30.176Z,1.30
2022-09-15T12:12:03.109Z,1.60
2022-09-15T12:14:36.785Z,1.80
2022-09-15T12:19:43.132Z,1.60
2022-09-15T12:22:39.291Z,1.50
2022-09-15T12:25:20.087Z,1.70
2022-09-15T12:31:23.533Z,1.70
2022-09-15T12:33:55.800Z,1.40
2022-09-15T12:36:34.082Z,1.90
2022-09-15T12:39:04.263Z,1.30
2022-09-15T12:41:33.333Z,1.20
2022-09-15T12:44:15.358Z,2.00
2022-09-15T12:46:51.876Z,1.50
2022-09-15T12:49:28.754Z,1.60
2022-09-15T12:51:59.270Z,1.90
2022-09-15T12:54:34.169Z,2.30
2022-09-15T12:57:23.847Z,1.60
2022-09-15T13:00:24.124Z,1.60
2022-09-15T13:03:06.747Z,1.90
2022-09-15T13:05:46.332Z,1.50
2022-09-15T13:08:38.722Z,1.90
2022-09-15T13:11:23.766Z,1.40
2022-09-15T13:14:11.236Z,2.00
2022-09-15T13:16:46.618Z,1.70
2022-09-15T13:19:33.470Z,1.70
2022-09-15T13:22:27.574Z,1.80
2022-09-15T13:25:15.904Z,1.40
2022-09-15T13:27:47.982Z,1.50
2022-09-15T13:30:26.397Z,2.30
2022-09-15T13:40:14.966Z,2.20
2022-09-15T13:43:20.364Z,1.50
2022-09-15T13:46:17.516Z,3.00
2022-09-15T13:49:15.658Z,1.70
2022-09-15T13:51:53.312Z,2.40
2022-09-15T13:54:21.602Z,2.60
2022-09-15T13:56:53.225Z,2.30
2022-09-15T13:59:25.530Z,2.10
2022-09-15T14:01:54.809Z,1.80
2022-09-15T14:04:30.599Z,1.90
2022-09-15T14:07:01.744Z,1.50
2022-09-15T14:09:39.071Z,1.70
2022-09-15T14:12:13.461Z,1.70
2022-09-15T14:14:46.703Z,1.50
2022-09-15T14:17:24.638Z,1.90
2022-09-15T14:19:58.438Z,2.10
2022-09-15T14:22:27.967Z,1.40
2022-09-15T14:24:57.683Z,1.40
2022-09-15T14:27:32.392Z,1.50
2022-09-15T14:30:09.537Z,1.90
2022-09-15T14:32:43.974Z,1.80
2022-09-15T14:35:19.654Z,1.50
2022-09-15T14:37:50.872Z,1.40
2022-09-15T14:40:28.403Z,1.60
2022-09-15T14:42:57.297Z,1.60
2022-09-15T14:46:02.527Z,1.70
2022-09-15T14:48:26.887Z,2.10
2022-09-15T14:51:03.402Z,1.70
2022-09-15T14:53:41.227Z,1.70
2022-09-15T14:56:19.267Z,2.10
2022-09-15T14:58:58.268Z,2.20
2022-09-15T15:01:40.146Z,1.60
2022-09-15T15:04:36.153Z,2.20
2022-09-15T15:07:09.627Z,1.80
2022-09-15T15:09:47.221Z,2.20
2022-09-15T15:12:45.962Z,2.00
2022-09-15T15:15:16.282Z,1.70
2022-09-15T15:17:49.426Z,1.70
2022-09-15T15:20:22.914Z,1.70
2022-09-15T15:23:20.745Z,2.30
2022-09-15T15:25:48.750Z,2.00
2022-09-15T15:28:34.947Z,2.20
2022-09-15T15:31:18.431Z,1.80
2022-09-15T15:33:59.458Z,1.70
2022-09-15T15:36:29.050Z,1.80
2022-09-15T15:39:04.593Z,1.70
2022-09-15T15:42:02.508Z,1.70
2022-09-15T15:44:32.388Z,1.80
2022-09-15T15:47:25.877Z,2.10
2022-09-15T15:50:13.283Z,2.20
2022-09-15T15:52:44.032Z,2.20
2022-09-15T15:55:17.899Z,2.20
2022-09-15T15:57:48.837Z,1.60
2022-09-15T16:00:26.298Z,2.00
2022-09-15T16:02:54.218Z,3.00
2022-09-15T16:05:26.696Z,2.40
2022-09-15T16:08:05.514Z,2.10
2022-09-15T16:10:44.832Z,2.30
2022-09-15T16:13:18.310Z,2.30
2022-09-15T16:15:47.001Z,2.40
2022-09-15T16:18:15.567Z,2.10
2022-09-15T16:20:43.917Z,2.50
2022-09-15T16:23:15.220Z,3.70
2022-09-15T16:28:17.691Z,2.70
2022-09-15T16:30:46.782Z,2.70
2022-09-15T16:33:16.481Z,2.10
2022-09-15T16:35:55.182Z,2.80
2022-09-15T16:38:37.068Z,3.00
2022-09-15T16:41:28.072Z,1.90
2022-09-15T16:43:56.334Z,1.70
2022-09-15T16:46:25.533Z,2.00
2022-09-15T16:48:53.655Z,2.10
2022-09-15T16:51:29.855Z,3.20
2022-09-15T16:53:59.721Z,3.00
2022-09-15T16:56:28.475Z,2.50
2022-09-15T16:59:00.206Z,3.20
2022-09-15T17:01:29.534Z,4.50
2022-09-15T17:03:59.632Z,3.10
2022-09-15T17:06:28.645Z,1.90
2022-09-15T17:08:56.835Z,2.20
2022-09-15T17:11:25.847Z,2.60
2022-09-15T17:13:54.113Z,2.60
2022-09-15T17:16:22.782Z,1.90
2022-09-15T17:18:55.252Z,2.70
2022-09-15T17:21:27.783Z,4.10
2022-09-15T17:23:57.167Z,3.30
2022-09-15T17:26:30.582Z,3.40
2022-09-15T17:29:00.696Z,3.20
2022-09-15T17:31:29.682Z,2.90
2022-09-15T17:33:58.568Z,2.90
2022-09-15T17:36:27.887Z,2.70
2022-09-15T17:39:03.273Z,3.20
2022-09-15T17:41:32.575Z,2.60
2022-09-15T17:44:01.709Z,3.20
2022-09-15T17:46:39.361Z,2.80
2022-09-15T17:49:08.341Z,2.50
2022-09-15T17:51:36.999Z,2.70
2022-09-15T17:54:07.816Z,2.50
2022-09-15T17:56:36.262Z,2.50
2022-09-15T17:59:04.246Z,2.20
2022-09-15T18:01:32.210Z,1.90
2022-09-15T18:04:00.257Z,2.40
2022-09-15T18:06:28.397Z,2.90
2022-09-15T18:08:57.449Z,2.30
2022-09-15T18:11:27.219Z,3.60
2022-09-15T18:13:57.620Z,3.20
2022-09-15T18:16:25.881Z,3.20
2022-09-15T18:18:53.950Z,3.10
2022-09-15T18:21:27.068Z,3.20
2022-09-15T18:24:03.349Z,2.90
2022-09-15T18:26:41.090Z,2.60
2022-09-15T18:29:17.126Z,2.80
2022-09-15T18:31:48.520Z,2.20
2022-09-15T18:34:26.545Z,2.90
2022-09-15T18:37:00.474Z,3.20
2022-09-15T18:39:34.453Z,2.40
2022-09-15T18:42:11.687Z,2.80
2022-09-15T18:44:45.614Z,2.50
2022-09-15T18:47:22.504Z,2.70
2022-09-15T18:50:05.968Z,2.20
2022-09-15T18:52:48.289Z,2.70
2022-09-15T18:55:32.217Z,2.40
2022-09-15T18:58:16.239Z,2.50
2022-09-15T19:00:49.927Z,2.10
2022-09-15T19:03:26.720Z,2.50
2022-09-15T19:06:04.802Z,2.20
2022-09-15T19:08:40.683Z,2.30
2022-09-15T19:11:13.216Z,2.80
2022-09-15T19:13:41.452Z,2.50
2022-09-15T19:16:09.712Z,2.10
2022-09-15T19:18:39.087Z,1.90
2022-09-15T19:21:11.307Z,2.10
2022-09-15T19:23:39.624Z,2.10
2022-09-15T19:26:13.743Z,2.20
2022-09-15T19:28:45.900Z,2.60
2022-09-15T19:31:13.826Z,2.50
2022-09-15T19:33:42.666Z,2.50
2022-09-15T19:36:27.878Z,1.70
2022-09-15T19:39:00.360Z,2.10
2022-09-15T19:41:29.164Z,2.40
2022-09-15T19:44:00.397Z,2.30
2022-09-15T19:46:28.414Z,2.50
2022-09-15T19:48:56.551Z,2.50
2022-09-15T19:51:25.390Z,2.70
2022-09-15T19:53:55.620Z,2.60
2022-09-15T19:56:28.449Z,2.70
2022-09-15T19:58:59.018Z,2.50
2022-09-15T20:01:29.014Z,3.30
2022-09-15T20:03:57.569Z,3.10
2022-09-15T20:06:28.975Z,2.90
2022-09-15T20:09:00.248Z,3.10
2022-09-15T20:11:29.693Z,3.00
2022-09-15T20:14:06.065Z,3.10
2022-09-15T20:16:34.073Z,4.40
2022-09-15T20:19:04.151Z,3.90
2022-09-15T20:21:52.518Z,6.70
2022-09-15T20:24:23.986Z,5.50
2022-09-15T20:26:52.262Z,17.00
2022-09-15T20:29:26.636Z,9.90
2022-09-15T20:32:01.526Z,18.70
2022-09-15T20:34:36.390Z,39.90
2022-09-15T20:37:14.467Z,22.50
2022-09-15T20:39:48.725Z,15.90
2022-09-15T20:42:18.110Z,11.70
2022-09-15T20:44:45.985Z,16.20
2022-09-15T20:47:14.071Z,26.40
2022-09-15T20:49:42.051Z,26.60
2022-09-15T20:52:10.203Z,30.10
2022-09-15T20:54:38.185Z,32.30
2022-09-15T20:57:06.257Z,31.10
2022-09-15T20:59:34.140Z,24.50
2022-09-15T21:02:04.389Z,24.90
2022-09-15T21:04:32.590Z,26.40
2022-09-15T21:07:00.440Z,19.00
2022-09-15T21:09:32.124Z,14.10
2022-09-15T21:12:01.534Z,9.70
2022-09-15T21:14:29.476Z,9.20
2022-09-15T21:16:57.630Z,7.90
2022-09-15T21:19:25.573Z,6.50
2022-09-15T21:21:55.017Z,6.10
2022-09-15T21:24:23.027Z,4.70
2022-09-15T21:27:16.293Z,4.30
2022-09-15T21:29:45.114Z,4.80
2022-09-15T21:32:13.413Z,4.60
2022-09-15T21:34:41.775Z,5.00
2022-09-15T21:37:11.031Z,4.30
2022-09-15T21:39:38.967Z,5.00
2022-09-15T21:42:07.854Z,4.90
2022-09-15T21:44:35.641Z,4.60
2022-09-15T21:47:03.861Z,4.50
2022-09-15T21:49:32.492Z,4.90
2022-09-15T21:52:00.312Z,3.50
2022-09-15T21:54:28.213Z,4.00
2022-09-15T21:56:57.130Z,4.50
2022-09-15T21:59:25.260Z,4.20
2022-09-15T22:01:54.449Z,3.70
2022-09-15T22:04:22.551Z,4.40
2022-09-15T22:06:50.893Z,3.70
2022-09-15T22:09:21.475Z,4.30
2022-09-15T22:11:49.387Z,4.40
2022-09-15T22:14:23.497Z,4.70
2022-09-15T22:16:51.726Z,4.40
2022-09-15T22:19:19.833Z,4.70
2022-09-15T22:21:47.683Z,4.50
2022-09-15T22:24:15.566Z,4.30
2022-09-15T22:26:44.092Z,5.30
2022-09-15T22:29:13.043Z,5.00
2022-09-15T22:31:42.209Z,4.40
2022-09-15T22:34:10.290Z,5.10
2022-09-15T22:36:38.271Z,4.60
2022-09-15T22:39:06.713Z,4.00
2022-09-15T22:41:38.967Z,3.90
2022-09-15T22:44:17.028Z,4.00
2022-09-15T22:46:49.066Z,4.00
2022-09-15T22:49:17.886Z,3.70
2022-09-15T22:51:46.053Z,4.40
2022-09-15T22:54:14.757Z,4.20
2022-09-15T22:56:42.581Z,5.00
2022-09-15T22:59:10.884Z,4.80
2022-09-15T23:01:38.830Z,4.20
2022-09-15T23:04:06.766Z,5.60
2022-09-15T23:06:34.713Z,4.80
2022-09-15T23:09:06.717Z,4.80
2022-09-15T23:11:42.143Z,5.80
2022-09-15T23:14:17.026Z,4.90
2022-09-15T23:16:45.146Z,4.80
2022-09-15T23:19:13.943Z,5.70
2022-09-15T23:21:41.966Z,4.60
2022-09-15T23:24:12.566Z,4.40
2022-09-15T23:26:40.599Z,4.20
2022-09-15T23:29:08.606Z,4.80
2022-09-15T23:31:36.530Z,5.50
2022-09-15T23:34:04.929Z,5.40
2022-09-15T23:36:32.685Z,4.30
2022-09-15T23:39:00.541Z,4.40
2022-09-15T23:41:28.506Z,4.40
2022-09-15T23:43:57.050Z,4.70
2022-09-15T23:46:24.882Z,3.70
2022-09-15T23:48:52.709Z,3.60
2022-09-15T23:51:20.580Z,3.10
2022-09-15T23:53:48.517Z,4.00
2022-09-15T23:56:16.472Z,3.60
2022-09-15T23:58:44.800Z,3.50
